CheckWX is a tool to help pilots better visualize weather data.  It is not intended as a substitute for an official pre-flight weather briefing.

13:22:01 UTC

LFPV TAF
Villacoublay-Vélizy (BA 107) Air Base Airport
Villacoublay/Vélizy, France
TAF LFPV 210800Z 2109/2209 11008KT CAVOK

Sep-21@
09:00 UTC

Sep-21 @ 09:00 UTC

Sep-22@
09:00 UTC

Sep-22 @ 09:00 UTC

TAF LFPV 210800Z 2109/2209 11008KT CAVOK
Wind
  • 110° at 8 KTS
Conditions
No significant weather
Cloud Levels
  • No significant clouds